Time;durP1;ratioP1;P1;durP2;ratioP2;P2;SDS_P1;SDS_P2;PMS_P1;PMS_P2;Temp;Humidity;BMP_temperature;BMP_pressure;BME280_temperature;BME280_humidity;BME280_pressure;Samples;Min_cycle;Max_cycle;Signal;HPM_P1;HPM_P2
2021/04/10 00:01:56;;;;;;;3.53;2.22;;;11.30;53.80;;;;;;5033164;28;20057;-90
2021/04/10 00:04:22;;;;;;;5.97;2.20;;;11.20;53.70;;;;;;5013247;28;20026;-84
2021/04/10 00:06:47;;;;;;;3.05;2.10;;;11.20;53.70;;;;;;5029804;28;20037;-86
2021/04/10 00:09:13;;;;;;;3.75;2.03;;;11.20;53.70;;;;;;5013446;28;20039;-85
2021/04/10 00:11:41;;;;;;;3.95;2.42;;;11.20;53.80;;;;;;4998543;28;20034;-86
2021/04/10 00:14:12;;;;;;;4.75;2.22;;;11.10;53.60;;;;;;5012218;28;20288;-87
2021/04/10 00:16:38;;;;;;;2.67;2.03;;;11.10;53.70;;;;;;4981833;28;20073;-84
2021/04/10 00:19:04;;;;;;;3.08;2.15;;;11.10;53.70;;;;;;4995964;28;20033;-88
2021/04/10 00:25:47;;;;;;;2.58;2.05;;;11.10;53.80;;;;;;4995533;28;20511;-84
2021/04/10 00:30:05;;;;;;;2.85;1.92;;;11.00;53.60;;;;;;5042676;28;20068;-83
2021/04/10 00:33:46;;;;;;;3.47;1.85;;;11.00;53.50;;;;;;5003177;28;20048;-85
2021/04/10 00:36:12;;;;;;;3.30;2.38;;;11.00;53.50;;;;;;4996479;28;20405;-83
2021/04/10 00:38:39;;;;;;;8.00;2.88;;;11.00;53.50;;;;;;5012430;28;20033;-82
2021/04/10 00:41:08;;;;;;;3.38;1.83;;;10.90;54.00;;;;;;5010922;28;20036;-84
2021/04/10 00:43:35;;;;;;;2.53;1.83;;;10.90;53.40;;;;;;5011010;28;20046;-85
2021/04/10 00:46:01;;;;;;;3.95;1.83;;;10.80;53.30;;;;;;5023332;28;20140;-85
2021/04/10 00:49:49;;;;;;;2.88;1.95;;;10.90;53.50;;;;;;5016167;28;20065;-85
2021/04/10 01:10:21;;;;;;;3.97;1.88;;;10.60;52.90;;;;;;5010020;28;20145;-83
2021/04/10 01:40:33;;;;;;;1.65;1.50;;;10.40;52.80;;;;;;5026916;28;20052;-85
2021/04/10 01:44:20;;;;;;;3.92;2.00;;;10.30;52.60;;;;;;5027214;28;20055;-86
2021/04/10 02:46:39;;;;;;;3.88;1.95;;;9.70;51.90;;;;;;4975675;28;20334;-88
2021/04/10 02:51:23;;;;;;;4.13;1.88;;;9.70;52.00;;;;;;4975367;28;20097;-90
2021/04/10 02:59:22;;;;;;;2.60;1.77;;;9.60;51.90;;;;;;4973336;28;20037;-89
2021/04/10 03:01:51;;;;;;;2.17;1.75;;;9.50;51.70;;;;;;5001955;28;20025;-89
2021/04/10 03:04:18;;;;;;;2.90;1.75;;;9.50;51.80;;;;;;5017653;28;20603;-84
2021/04/10 03:06:45;;;;;;;5.18;2.38;;;9.40;51.70;;;;;;5017856;28;20040;-84
2021/04/10 03:09:12;;;;;;;2.95;2.00;;;9.40;51.80;;;;;;5017235;28;20441;-84
2021/04/10 03:11:39;;;;;;;2.42;1.92;;;9.40;51.90;;;;;;5017313;28;20025;-85
2021/04/10 03:14:07;;;;;;;4.18;2.47;;;9.40;52.00;;;;;;5001246;28;20037;-84
2021/04/10 03:16:34;;;;;;;3.13;1.90;;;9.40;52.10;;;;;;5017098;28;20036;-83
2021/04/10 03:19:09;;;;;;;4.00;2.38;;;9.30;51.90;;;;;;5032940;28;20268;-86
2021/04/10 03:21:41;;;;;;;3.60;1.80;;;9.30;52.00;;;;;;5001652;28;20037;-82
2021/04/10 03:24:10;;;;;;;2.10;1.83;;;9.30;52.00;;;;;;5033732;28;20022;-84
2021/04/10 03:26:38;;;;;;;4.72;2.65;;;9.20;51.90;;;;;;5001009;28;20140;-85
2021/04/10 03:29:07;;;;;;;4.45;1.98;;;9.20;51.90;;;;;;5033300;28;20119;-85
2021/04/10 03:31:40;;;;;;;4.28;2.60;;;9.20;52.00;;;;;;5017112;28;20034;-84
2021/04/10 03:34:07;;;;;;;5.78;2.10;;;9.20;52.00;;;;;;5033397;28;20504;-85
2021/04/10 03:36:36;;;;;;;4.70;1.88;;;9.20;52.00;;;;;;5017278;28;20030;-84
2021/04/10 03:39:03;;;;;;;3.40;2.42;;;9.20;52.10;;;;;;5000951;28;20397;-85
2021/04/10 03:41:32;;;;;;;3.30;2.47;;;9.20;52.10;;;;;;5017214;28;20062;-85
2021/04/10 03:43:58;;;;;;;3.38;1.90;;;9.10;51.90;;;;;;5000851;28;20033;-84
2021/04/10 03:46:26;;;;;;;3.67;2.40;;;9.10;51.90;;;;;;5033211;28;20304;-84
2021/04/10 03:48:53;;;;;;;2.97;2.17;;;9.10;51.90;;;;;;5016469;28;20033;-85
2021/04/10 03:51:27;;;;;;;3.10;2.20;;;9.10;51.90;;;;;;5001030;28;20033;-84
2021/04/10 03:53:58;;;;;;;3.90;2.33;;;9.10;52.00;;;;;;5000515;28;20095;-85
2021/04/10 03:56:26;;;;;;;2.58;2.15;;;9.10;52.00;;;;;;5016569;28;20092;-85
2021/04/10 03:58:56;;;;;;;3.90;1.77;;;9.00;51.80;;;;;;5000744;28;20091;-84
2021/04/10 04:01:36;;;;;;;3.88;2.30;;;9.00;51.80;;;;;;5016903;28;20085;-84
2021/04/10 04:04:03;;;;;;;3.83;2.38;;;9.00;51.90;;;;;;5016331;28;20029;-85
2021/04/10 04:06:29;;;;;;;5.75;2.30;;;9.00;51.90;;;;;;5000007;28;20488;-84
2021/04/10 04:08:55;;;;;;;3.47;2.30;;;9.00;51.90;;;;;;5016152;28;20029;-86
2021/04/10 04:11:21;;;;;;;3.70;2.08;;;8.90;51.70;;;;;;5016396;28;20037;-83
2021/04/10 04:13:47;;;;;;;2.70;2.25;;;8.90;51.80;;;;;;5016443;28;20037;-86
2021/04/10 04:16:14;;;;;;;4.53;2.47;;;8.90;51.80;;;;;;5016240;28;20561;-84
2021/04/10 04:18:40;;;;;;;4.03;2.47;;;8.80;51.60;;;;;;5032677;28;20035;-85
2021/04/10 04:21:06;;;;;;;3.42;2.42;;;8.80;51.60;;;;;;5000089;28;20029;-85
2021/04/10 04:23:32;;;;;;;2.70;2.10;;;8.80;51.70;;;;;;5000032;28;20493;-84
2021/04/10 04:25:59;;;;;;;4.03;2.45;;;8.80;51.80;;;;;;5000134;28;20048;-84
2021/04/10 04:28:25;;;;;;;3.80;2.03;;;8.80;51.80;;;;;;5016109;28;20025;-85
2021/04/10 04:30:51;;;;;;;2.30;1.77;;;8.80;51.90;;;;;;5015940;28;20124;-84
2021/04/10 04:33:17;;;;;;;3.13;2.10;;;8.70;51.70;;;;;;5015742;28;20116;-86
2021/04/10 04:35:43;;;;;;;3.17;1.98;;;8.70;51.70;;;;;;5015777;28;20388;-83
2021/04/10 04:38:09;;;;;;;2.97;2.30;;;8.70;51.80;;;;;;4999441;28;20490;-85
2021/04/10 04:40:35;;;;;;;3.72;2.20;;;8.60;51.60;;;;;;5015753;28;20041;-84
2021/04/10 04:43:01;;;;;;;2.88;2.22;;;8.70;51.80;;;;;;4998726;28;20465;-84
2021/04/10 04:45:28;;;;;;;3.38;2.17;;;8.70;51.80;;;;;;4998706;28;20042;-83
2021/04/10 04:47:55;;;;;;;6.18;2.33;;;8.60;51.60;;;;;;4992766;28;20560;-83
2021/04/10 04:50:42;;;;;;;3.95;2.22;;;8.60;51.60;;;;;;4992597;28;20034;-84
2021/04/10 04:53:30;;;;;;;4.97;2.45;;;8.50;51.40;;;;;;4992715;28;20121;-84
2021/04/10 04:55:56;;;;;;;3.53;1.60;;;8.50;51.40;;;;;;4976099;28;20124;-84
2021/04/10 04:58:22;;;;;;;5.28;2.55;;;8.50;51.40;;;;;;5000030;28;20536;-85
2021/04/10 05:00:48;;;;;;;3.15;2.13;;;8.50;51.40;;;;;;5011116;28;20261;-85
2021/04/10 05:03:14;;;;;;;3.47;2.40;;;8.40;51.30;;;;;;5018386;28;20061;-85
2021/04/10 05:05:40;;;;;;;4.22;2.47;;;8.40;51.30;;;;;;5009525;28;20081;-86
2021/04/10 05:08:06;;;;;;;3.35;2.22;;;8.40;51.30;;;;;;5014297;28;20030;-85
2021/04/10 05:10:32;;;;;;;5.07;2.38;;;8.30;51.20;;;;;;5000035;28;20045;-89
2021/04/10 05:12:58;;;;;;;3.58;2.20;;;8.30;51.30;;;;;;5011106;28;20115;-83
2021/04/10 05:15:24;;;;;;;2.60;1.70;;;8.30;51.30;;;;;;5012043;28;20045;-88
2021/04/10 05:17:50;;;;;;;2.42;1.77;;;8.30;51.40;;;;;;5029346;28;20029;-84
2021/04/10 05:20:16;;;;;;;4.07;2.15;;;8.30;51.40;;;;;;4996302;28;20037;-84
2021/04/10 05:22:42;;;;;;;2.85;2.30;;;8.20;51.20;;;;;;5008160;28;20486;-84
2021/04/10 05:25:09;;;;;;;2.17;1.98;;;8.20;51.30;;;;;;4975962;28;20033;-84
2021/04/10 05:27:35;;;;;;;3.28;2.50;;;8.20;51.30;;;;;;5008149;28;20121;-83
2021/04/10 05:30:04;;;;;;;3.83;2.50;;;8.20;51.30;;;;;;5009198;28;20113;-86
2021/04/10 05:32:31;;;;;;;4.85;2.50;;;8.20;51.20;;;;;;4996035;28;20048;-88
2021/04/10 05:34:57;;;;;;;17.83;3.30;;;8.20;51.30;;;;;;5011225;28;20037;-84
2021/04/10 05:37:23;;;;;;;4.35;2.22;;;8.20;51.30;;;;;;5012737;28;20095;-86
2021/04/10 05:39:49;;;;;;;6.97;2.95;;;8.20;51.30;;;;;;5008665;28;20030;-83
2021/04/10 05:42:15;;;;;;;3.58;2.40;;;8.10;51.10;;;;;;5007661;28;20064;-82
2021/04/10 05:44:41;;;;;;;4.53;2.25;;;8.10;51.10;;;;;;5028880;28;20045;-82
2021/04/10 05:47:14;;;;;;;4.53;2.40;;;8.10;51.10;;;;;;5011885;28;20423;-85
2021/04/10 05:50:08;;;;;;;3.83;2.28;;;8.10;51.10;;;;;;5029434;28;20045;-83
2021/04/10 05:52:34;;;;;;;3.38;2.33;;;8.10;51.10;;;;;;4992878;28;20095;-85
2021/04/10 05:55:04;;;;;;;8.48;2.60;;;8.10;51.10;;;;;;4995283;28;20033;-83
2021/04/10 05:57:31;;;;;;;12.93;3.30;;;8.00;51.10;;;;;;5009579;28;20428;-85
2021/04/10 05:59:57;;;;;;;6.43;2.75;;;8.10;51.40;;;;;;5028568;28;20091;-87
2021/04/10 06:02:23;;;;;;;5.47;2.67;;;8.10;51.40;;;;;;5012425;28;20033;-86
2021/04/10 06:04:51;;;;;;;6.78;2.70;;;8.10;51.40;;;;;;5002205;28;20065;-84
2021/04/10 06:07:18;;;;;;;5.15;2.97;;;8.10;51.50;;;;;;5024560;28;20040;-88
2021/04/10 06:09:44;;;;;;;5.30;3.58;;;8.10;51.70;;;;;;5022267;28;20409;-86
2021/04/10 06:12:10;;;;;;;4.70;2.90;;;8.10;51.70;;;;;;5025595;28;20033;-84
2021/04/10 06:14:36;;;;;;;5.38;2.20;;;8.10;51.70;;;;;;5028126;28;20057;-85
2021/04/10 06:17:03;;;;;;;4.38;3.05;;;8.10;51.70;;;;;;5028491;28;20033;-83
2021/04/10 06:19:29;;;;;;;9.75;3.50;;;8.10;51.70;;;;;;5028102;28;20503;-85
2021/04/10 06:21:55;;;;;;;4.05;2.88;;;8.10;51.60;;;;;;5026695;28;20034;-85
2021/04/10 06:24:21;;;;;;;4.40;2.85;;;8.10;51.60;;;;;;5029184;28;20092;-84
2021/04/10 06:26:47;;;;;;;6.05;3.85;;;8.10;51.60;;;;;;5010597;28;20041;-83
2021/04/10 06:29:13;;;;;;;7.20;3.42;;;8.10;51.60;;;;;;5023417;28;20037;-86
2021/04/10 06:31:40;;;;;;;4.25;3.35;;;8.10;51.60;;;;;;5024071;28;20025;-86
2021/04/10 06:34:08;;;;;;;5.15;4.05;;;8.10;51.70;;;;;;5005406;28;20026;-84
2021/04/10 06:36:35;;;;;;;5.13;3.72;;;8.10;51.70;;;;;;5020458;28;20029;-87
2021/04/10 06:39:01;;;;;;;6.00;4.03;;;8.20;51.90;;;;;;4996036;28;20085;-86
2021/04/10 06:41:28;;;;;;;8.45;4.70;;;8.20;51.90;;;;;;5025682;28;20044;-87
2021/04/10 06:43:54;;;;;;;7.63;4.55;;;8.30;52.00;;;;;;5001024;28;20536;-83
2021/04/10 06:46:23;;;;;;;6.38;3.97;;;8.40;52.20;;;;;;4984571;28;20104;-83
2021/04/10 06:48:54;;;;;;;9.32;5.05;;;8.40;52.20;;;;;;5017763;28;20132;-85
2021/04/10 06:51:22;;;;;;;5.60;4.78;;;8.50;52.20;;;;;;5008746;28;20631;-86
2021/04/10 06:53:48;;;;;;;7.70;5.80;;;8.60;52.30;;;;;;5008602;28;20120;-84
2021/04/10 06:56:20;;;;;;;8.20;5.43;;;8.60;52.20;;;;;;5011154;28;20020;-83
2021/04/10 06:59:23;;;;;;;6.35;5.10;;;8.60;52.20;;;;;;5035794;28;20283;-85
2021/04/10 07:01:51;;;;;;;11.98;5.60;;;8.60;52.20;;;;;;5026091;28;20396;-84
2021/04/10 07:04:18;;;;;;;8.65;6.00;;;8.70;52.30;;;;;;5010121;28;20543;-84
2021/04/10 07:06:45;;;;;;;9.63;5.88;;;8.60;52.10;;;;;;5027743;28;20037;-84
2021/04/10 07:09:12;;;;;;;7.72;6.68;;;8.70;52.30;;;;;;5010385;28;20532;-84
2021/04/10 07:11:39;;;;;;;9.20;6.50;;;8.70;52.40;;;;;;5008014;28;20172;-84
2021/04/10 07:14:05;;;;;;;6.28;5.63;;;8.70;52.30;;;;;;5019561;28;20489;-85
2021/04/10 07:16:38;;;;;;;10.90;6.55;;;8.70;52.30;;;;;;5007871;28;20118;-84
2021/04/10 07:19:12;;;;;;;8.32;6.25;;;8.70;52.30;;;;;;5002280;28;20021;-83
2021/04/10 07:21:39;;;;;;;10.88;7.10;;;8.80;52.50;;;;;;5010257;28;20040;-87
2021/04/10 07:24:06;;;;;;;7.50;6.25;;;8.80;52.40;;;;;;5010842;28;20495;-84
2021/04/10 07:27:00;;;;;;;8.82;6.57;;;8.90;52.60;;;;;;5011251;28;20045;-84
2021/04/10 07:29:33;;;;;;;;;;;9.00;52.90;;;;;;5014884;28;20138;-85
2021/04/10 07:32:01;;;;;;;9.23;6.57;;;9.10;52.90;;;;;;5030843;28;20047;-86
2021/04/10 07:34:28;;;;;;;9.77;7.95;;;9.20;52.90;;;;;;4995202;28;20048;-83
2021/04/10 07:37:02;;;;;;;14.23;8.98;;;9.30;52.90;;;;;;4994917;28;20030;-84
2021/04/10 07:39:28;;;;;;;9.73;8.45;;;9.50;53.30;;;;;;5028838;28;20029;-85
2021/04/10 07:42:04;;;;;;;10.90;8.32;;;9.60;53.20;;;;;;4996891;28;20033;-85
2021/04/10 07:44:41;;;;;;;9.40;7.57;;;9.70;53.30;;;;;;4958592;28;20038;-89
2021/04/10 07:47:09;;;;;;;9.95;8.35;;;9.80;53.30;;;;;;4987173;28;20114;-85
2021/04/10 07:49:36;;;;;;;8.90;7.68;;;9.90;53.20;;;;;;4993046;28;20025;-84
2021/04/10 07:52:07;;;;;;;12.32;8.23;;;10.00;53.30;;;;;;4993221;28;20057;-85
2021/04/10 07:54:39;;;;;;;11.77;8.90;;;10.10;53.30;;;;;;4973032;28;20022;-81
2021/04/10 07:57:09;;;;;;;12.00;8.25;;;10.30;53.60;;;;;;4993770;28;20068;-86
2021/04/10 07:59:52;;;;;;;9.05;8.15;;;10.40;53.60;;;;;;5027869;28;20026;-82
2021/04/10 08:02:19;;;;;;;8.50;7.43;;;10.60;53.80;;;;;;4985859;28;20323;-86
2021/04/10 08:04:56;;;;;;;9.82;8.50;;;10.70;53.80;;;;;;5013377;28;20029;-82
2021/04/10 08:07:28;;;;;;;9.95;8.52;;;10.80;53.80;;;;;;4979357;28;20454;-86
2021/04/10 08:10:03;;;;;;;11.27;9.55;;;10.90;53.80;;;;;;5002836;28;20548;-85
2021/04/10 08:12:38;;;;;;;10.63;9.55;;;11.00;53.80;;;;;;4995583;28;20579;-83
2021/04/10 08:15:07;;;;;;;13.55;9.20;;;11.10;53.80;;;;;;5012481;28;20029;-82
2021/04/10 08:17:40;;;;;;;12.38;8.73;;;11.20;53.70;;;;;;4996180;28;20056;-83
2021/04/10 08:20:23;;;;;;;13.40;9.20;;;11.30;53.60;;;;;;5014082;28;20484;-82
2021/04/10 08:22:50;;;;;;;10.77;8.50;;;11.30;53.40;;;;;;5030281;28;20033;-81
2021/04/10 08:25:31;;;;;;;11.70;9.50;;;11.30;53.30;;;;;;5030526;28;20029;-83
2021/04/10 08:27:57;;;;;;;10.38;9.32;;;11.40;53.30;;;;;;5012750;28;20458;-82
2021/04/10 08:30:24;;;;;;;10.40;9.35;;;11.40;53.20;;;;;;5013865;28;20113;-86
2021/04/10 08:32:51;;;;;;;10.20;9.07;;;11.40;53.20;;;;;;5013635;28;20029;-84
2021/04/10 08:35:17;;;;;;;10.77;9.68;;;11.50;53.30;;;;;;5013389;28;20112;-84
2021/04/10 08:37:48;;;;;;;13.48;10.90;;;11.50;53.20;;;;;;5013555;28;20036;-82
2021/04/10 08:40:21;;;;;;;12.07;9.73;;;11.50;53.10;;;;;;5013696;28;20022;-85
2021/04/10 08:42:49;;;;;;;10.13;9.13;;;11.60;53.20;;;;;;5030972;28;20084;-84
2021/04/10 08:45:15;;;;;;;10.95;9.95;;;11.60;53.20;;;;;;5013238;28;20042;-82
2021/04/10 08:47:42;;;;;;;13.05;10.38;;;11.70;53.30;;;;;;5013078;28;20030;-85
2021/04/10 08:50:12;;;;;;;10.57;9.52;;;11.70;53.10;;;;;;5031356;28;20537;-88
2021/04/10 08:52:39;;;;;;;10.15;9.07;;;11.80;53.20;;;;;;5012442;28;20061;-85
2021/04/10 08:55:11;;;;;;;11.27;10.10;;;11.80;53.10;;;;;;4997616;28;20021;-84
2021/04/10 08:57:39;;;;;;;11.73;10.48;;;11.80;53.10;;;;;;5014053;28;21085;-86
2021/04/10 09:00:25;;;;;;;11.02;9.63;;;11.90;53.20;;;;;;5029102;28;20021;-83
2021/04/10 09:03:00;;;;;;;11.13;9.73;;;11.90;53.10;;;;;;5026903;28;20493;-81
2021/04/10 09:06:04;;;;;;;12.30;10.35;;;12.00;53.30;;;;;;4995637;28;20048;-84
2021/04/10 09:08:30;;;;;;;12.38;10.38;;;12.00;53.20;;;;;;4962606;28;20502;-84
2021/04/10 09:10:59;;;;;;;11.82;10.43;;;12.10;53.30;;;;;;4940685;28;20151;-82
2021/04/10 09:13:30;;;;;;;10.52;9.35;;;12.10;53.20;;;;;;4965204;28;20436;-85
2021/04/10 09:16:28;;;;;;;12.55;10.70;;;12.20;53.30;;;;;;5011600;28;20025;-83
2021/04/10 09:19:18;;;;;;;11.20;9.57;;;12.30;53.30;;;;;;4995458;28;20488;-84
2021/04/10 09:21:48;;;;;;;12.60;10.25;;;12.40;53.40;;;;;;5010944;28;20033;-84
2021/04/10 09:24:19;;;;;;;13.15;11.02;;;12.40;53.20;;;;;;4994285;28;20400;-84
2021/04/10 09:27:18;;;;;;;11.63;10.05;;;12.40;53.20;;;;;;5010288;28;20502;-83
2021/04/10 09:29:47;;;;;;;12.35;11.02;;;12.50;53.20;;;;;;5024084;28;20041;-82
2021/04/10 09:32:27;;;;;;;13.32;10.35;;;12.60;53.40;;;;;;4995480;28;20530;-81
2021/04/10 09:35:04;;;;;;;13.60;10.45;;;12.60;53.20;;;;;;5013212;28;20038;-81
2021/04/10 09:37:30;;;;;;;11.65;9.52;;;12.70;53.30;;;;;;5007816;28;20491;-82
2021/04/10 09:39:57;;;;;;;11.02;9.88;;;12.70;53.20;;;;;;5011672;28;20105;-82
2021/04/10 09:45:23;;;;;;;11.77;10.57;;;12.90;53.30;;;;;;5031437;28;20056;-88
2021/04/10 09:48:01;;;;;;;10.90;9.77;;;13.00;53.40;;;;;;5010396;28;20060;-87
2021/04/10 09:50:45;;;;;;;10.88;9.82;;;13.10;53.40;;;;;;5022004;28;20536;-82
2021/04/10 09:53:23;;;;;;;13.00;10.70;;;13.30;53.60;;;;;;5016638;28;20052;-83
2021/04/10 09:55:55;;;;;;;11.75;10.50;;;13.40;53.50;;;;;;5029420;28;20074;-82
2021/04/10 09:58:23;;;;;;;11.30;10.10;;;13.60;53.70;;;;;;5030472;28;20044;-83
2021/04/10 10:00:58;;;;;;;12.63;10.30;;;13.70;53.60;;;;;;5015456;28;20064;-84
2021/04/10 10:03:25;;;;;;;11.88;10.68;;;13.90;53.80;;;;;;5013968;28;20057;-86
2021/04/10 10:05:53;;;;;;;14.30;9.85;;;14.00;53.80;;;;;;5012549;28;20037;-86
2021/04/10 10:08:20;;;;;;;11.68;10.13;;;14.20;54.10;;;;;;5010293;28;20029;-89
2021/04/10 10:10:52;;;;;;;19.00;15.52;;;14.30;54.10;;;;;;5011277;28;20061;-87
2021/04/10 10:13:29;;;;;;;19.23;15.68;;;14.40;53.60;;;;;;4994393;28;20548;-87
2021/04/10 10:15:56;;;;;;;21.50;14.55;;;14.40;52.70;;;;;;5029892;28;20075;-89
2021/04/10 10:18:27;;;;;;;16.13;14.07;;;14.50;52.60;;;;;;4995173;28;20025;-86
2021/04/10 10:21:02;;;;;;;17.40;14.85;;;14.40;52.00;;;;;;5012280;28;20037;-87
2021/04/10 10:23:33;;;;;;;19.95;14.60;;;14.40;51.80;;;;;;5035533;28;20210;-86
2021/04/10 10:26:06;;;;;;;15.93;13.82;;;14.40;51.40;;;;;;5028184;28;20072;-87
2021/04/10 10:28:33;;;;;;;17.48;14.88;;;14.30;50.70;;;;;;5013150;28;20060;-84
2021/04/10 10:31:08;;;;;;;19.80;14.27;;;14.20;50.50;;;;;;5013479;28;20392;-89
2021/04/10 10:33:34;;;;;;;16.33;14.43;;;14.10;50.00;;;;;;5012845;28;20029;-86
2021/04/10 10:36:01;;;;;;;15.15;13.15;;;14.10;50.10;;;;;;5004126;28;20377;-83
2021/04/10 10:38:39;;;;;;;14.82;13.30;;;14.00;49.70;;;;;;5018071;28;20029;-87
2021/04/10 10:41:06;;;;;;;14.52;12.98;;;14.00;49.20;;;;;;5003589;28;20138;-88
2021/04/10 10:43:33;;;;;;;18.73;13.90;;;13.90;49.10;;;;;;5011377;28;20064;-85
2021/04/10 10:46:10;;;;;;;21.63;13.90;;;13.80;48.90;;;;;;4995548;28;20041;-84
2021/04/10 10:49:40;;;;;;;17.15;14.52;;;13.80;48.70;;;;;;5011899;28;20068;-84
2021/04/10 10:52:13;;;;;;;15.57;13.57;;;13.80;48.80;;;;;;5018738;28;20546;-84
2021/04/10 10:54:39;;;;;;;15.13;13.57;;;13.80;48.90;;;;;;5027197;28;20033;-84
2021/04/10 10:57:16;;;;;;;17.77;13.90;;;13.80;48.80;;;;;;5009528;28;20469;-84
2021/04/10 10:59:44;;;;;;;15.52;13.20;;;13.80;48.40;;;;;;5030697;28;20018;-84
2021/04/10 11:02:17;;;;;;;16.90;13.63;;;13.80;48.50;;;;;;5009195;28;20057;-84
2021/04/10 11:04:45;;;;;;;19.33;14.75;;;13.80;48.30;;;;;;5032825;28;20030;-89
2021/04/10 11:07:12;;;;;;;18.98;13.95;;;13.80;48.20;;;;;;5010176;28;20121;-87
2021/04/10 11:09:41;;;;;;;18.08;13.73;;;13.80;48.10;;;;;;5028264;28;20113;-86
2021/04/10 11:12:18;;;;;;;17.05;14.82;;;13.90;48.20;;;;;;5013402;28;20096;-83
2021/04/10 11:14:47;;;;;;;15.48;13.90;;;13.90;47.90;;;;;;4994908;28;20022;-84
2021/04/10 11:17:31;;;;;;;16.08;14.20;;;14.00;48.00;;;;;;4995471;28;20030;-87
2021/04/10 11:20:02;;;;;;;17.48;13.75;;;14.10;47.70;;;;;;5013984;28;20021;-84
2021/04/10 11:22:29;;;;;;;16.08;13.93;;;14.10;47.70;;;;;;5029888;28;20029;-82
2021/04/10 11:25:00;;;;;;;15.50;13.85;;;14.20;47.70;;;;;;4996777;28;20116;-81
2021/04/10 11:27:27;;;;;;;16.88;13.55;;;14.20;47.50;;;;;;5013691;28;20484;-81
2021/04/10 11:30:03;;;;;;;15.43;13.00;;;14.10;47.20;;;;;;5029024;28;20036;-82
2021/04/10 11:32:31;;;;;;;18.90;13.35;;;14.20;47.20;;;;;;5031380;28;20440;-79
2021/04/10 11:35:00;;;;;;;14.82;13.02;;;14.10;47.10;;;;;;5013678;28;20269;-80
2021/04/10 11:37:29;;;;;;;14.55;12.85;;;14.10;47.00;;;;;;5013943;28;20071;-83
2021/04/10 11:39:56;;;;;;;14.68;13.15;;;14.00;46.60;;;;;;4997289;28;20117;-83
2021/04/10 11:42:27;;;;;;;14.00;12.70;;;14.00;46.60;;;;;;5012163;28;20052;-80
2021/04/10 11:44:56;;;;;;;14.95;13.50;;;13.90;46.30;;;;;;4995397;28;20059;-81
2021/04/10 11:47:30;;;;;;;17.23;13.13;;;13.90;46.40;;;;;;5030902;28;20068;-86
2021/04/10 11:50:15;;;;;;;17.08;13.27;;;13.80;46.30;;;;;;5008902;28;20056;-82
2021/04/10 11:52:44;;;;;;;12.93;11.75;;;13.80;46.30;;;;;;5015095;28;20030;-86
2021/04/10 11:55:16;;;;;;;17.42;13.00;;;13.70;46.30;;;;;;4999457;28;20148;-86
2021/04/10 11:57:43;;;;;;;16.00;12.45;;;13.70;46.20;;;;;;5032421;28;20030;-84
2021/04/10 12:00:15;;;;;;;15.75;13.50;;;13.70;46.40;;;;;;5011715;28;20017;-84
2021/04/10 12:02:46;;;;;;;18.15;12.55;;;13.70;46.40;;;;;;5014116;28;20160;-82
2021/04/10 12:05:27;;;;;;;15.35;13.35;;;13.70;46.40;;;;;;5000342;28;20284;-84
2021/04/10 12:08:22;;;;;;;14.68;12.77;;;13.70;46.40;;;;;;5003732;28;20239;-82
2021/04/10 12:10:59;;;;;;;15.35;13.32;;;13.80;46.60;;;;;;5005589;28;20050;-82
2021/04/10 12:13:28;;;;;;;14.40;12.43;;;13.90;46.70;;;;;;5001069;28;20060;-83
2021/04/10 12:15:59;;;;;;;15.45;12.98;;;13.90;46.60;;;;;;5029583;28;20484;-84
2021/04/10 12:18:29;;;;;;;13.10;11.70;;;14.00;46.80;;;;;;5029390;28;20026;-83
2021/04/10 12:20:58;;;;;;;15.93;12.43;;;14.10;46.90;;;;;;5011938;28;20033;-86
2021/04/10 12:23:24;;;;;;;12.32;11.10;;;14.20;47.00;;;;;;5012075;28;20555;-86
2021/04/10 12:25:50;;;;;;;15.13;11.68;;;14.30;47.00;;;;;;5012729;28;20049;-84
2021/04/10 12:28:18;;;;;;;14.18;11.85;;;14.40;46.90;;;;;;5012500;28;20037;-86
2021/04/10 12:30:45;;;;;;;12.48;11.18;;;14.50;47.00;;;;;;5012552;28;20026;-86
2021/04/10 12:33:11;;;;;;;13.93;11.27;;;14.60;47.00;;;;;;4996551;28;20490;-91
2021/04/10 12:35:37;;;;;;;12.93;11.50;;;14.60;46.80;;;;;;5030687;28;20041;-86
2021/04/10 12:38:04;;;;;;;12.75;10.85;;;14.70;46.90;;;;;;5029833;28;20125;-84
2021/04/10 12:40:31;;;;;;;10.95;9.85;;;14.80;47.00;;;;;;5030409;28;20037;-86
2021/04/10 12:42:57;;;;;;;12.20;10.68;;;14.90;47.10;;;;;;5032672;28;20021;-90
2021/04/10 12:45:23;;;;;;;12.77;11.23;;;15.10;47.30;;;;;;5013568;28;20044;-89
2021/04/10 12:47:49;;;;;;;14.90;10.82;;;15.30;47.40;;;;;;5015846;28;20093;-83
2021/04/10 12:50:21;;;;;;;12.20;10.60;;;15.40;47.40;;;;;;5016221;28;20089;-89
2021/04/10 12:52:47;;;;;;;12.30;9.70;;;15.50;47.20;;;;;;5015209;28;20048;-86
2021/04/10 12:55:14;;;;;;;11.45;9.77;;;15.60;47.30;;;;;;5013777;28;20029;-89
2021/04/10 12:57:41;;;;;;;13.18;10.18;;;15.60;47.10;;;;;;5012796;28;20025;-84
2021/04/10 13:00:10;;;;;;;12.27;9.98;;;15.70;47.10;;;;;;4995848;28;20033;-86
2021/04/10 13:02:36;;;;;;;13.05;8.95;;;15.80;47.30;;;;;;5012390;28;20133;-90
2021/04/10 13:05:04;;;;;;;12.85;9.32;;;15.80;47.40;;;;;;5030399;28;20033;-85
2021/04/10 13:07:30;;;;;;;14.30;8.68;;;15.90;47.80;;;;;;5029809;28;20143;-81
2021/04/10 13:09:57;;;;;;;11.15;8.80;;;16.00;48.10;;;;;;5030176;28;20050;-82
2021/04/10 13:12:23;;;;;;;12.52;8.30;;;16.10;48.70;;;;;;5031840;28;20037;-84
2021/04/10 13:14:52;;;;;;;14.80;9.18;;;16.30;48.40;;;;;;5030978;28;20110;-80
2021/04/10 13:17:18;;;;;;;10.23;8.25;;;16.40;48.20;;;;;;5030175;28;20041;-80
2021/04/10 13:19:44;;;;;;;9.82;7.95;;;16.50;48.20;;;;;;5029282;28;20519;-88
2021/04/10 13:22:10;;;;;;;11.20;8.60;;;16.60;48.30;;;;;;5030226;28;20345;-88
2021/04/10 13:24:36;;;;;;;12.38;8.60;;;16.70;48.40;;;;;;5025283;28;20025;-81
2021/04/10 13:27:03;;;;;;;12.20;8.25;;;16.80;48.40;;;;;;5017626;28;20037;-83
2021/04/10 13:29:30;;;;;;;10.45;8.25;;;16.90;48.50;;;;;;5029721;28;20060;-91
2021/04/10 13:31:57;;;;;;;11.60;8.57;;;17.00;48.30;;;;;;5011337;28;20030;-80
2021/04/10 13:34:23;;;;;;;11.30;7.97;;;17.20;48.40;;;;;;5025887;28;20079;-82
2021/04/10 13:36:49;;;;;;;8.40;7.53;;;17.30;48.30;;;;;;5027210;28;20064;-84
2021/04/10 13:39:15;;;;;;;10.98;7.82;;;17.40;48.20;;;;;;5027506;28;20061;-80
2021/04/10 13:41:42;;;;;;;9.07;7.80;;;17.40;48.00;;;;;;5027390;28;20033;-82
2021/04/10 13:44:11;;;;;;;9.60;6.95;;;17.40;47.80;;;;;;5028978;28;20033;-81
2021/04/10 13:46:37;;;;;;;8.63;7.45;;;17.50;47.80;;;;;;5028936;28;20389;-87
2021/04/10 13:49:04;;;;;;;10.35;7.20;;;17.50;48.20;;;;;;5030618;28;20060;-83
2021/04/10 13:51:30;;;;;;;8.60;7.38;;;17.40;47.20;;;;;;5028133;28;20059;-85
2021/04/10 13:53:56;;;;;;;9.40;6.70;;;17.50;47.30;;;;;;5026232;28;20099;-83
2021/04/10 13:56:22;;;;;;;11.50;7.72;;;17.50;47.30;;;;;;5031724;28;20120;-84
2021/04/10 13:58:49;;;;;;;7.80;7.00;;;17.40;47.00;;;;;;5021583;28;20040;-85
2021/04/10 14:01:15;;;;;;;7.05;6.30;;;17.40;47.00;;;;;;5024242;28;20029;-85
2021/04/10 14:03:41;;;;;;;8.27;6.45;;;17.40;46.90;;;;;;5029689;28;20033;-84
2021/04/10 14:06:11;;;;;;;8.00;7.18;;;17.40;46.80;;;;;;5009988;28;20037;-81
2021/04/10 14:08:37;;;;;;;7.22;6.53;;;17.50;46.80;;;;;;5030498;28;20035;-84
2021/04/10 14:11:03;;;;;;;8.45;6.88;;;17.50;46.70;;;;;;5030607;28;20055;-88
2021/04/10 14:13:29;;;;;;;8.13;6.45;;;17.50;46.70;;;;;;5040742;28;20029;-85
2021/04/10 14:15:58;;;;;;;8.32;6.63;;;17.50;46.50;;;;;;5030404;28;20037;-82
2021/04/10 14:18:25;;;;;;;9.65;6.50;;;17.60;46.60;;;;;;5030574;28;20052;-85
2021/04/10 14:20:51;;;;;;;7.10;6.40;;;17.60;46.50;;;;;;5024652;28;20578;-83
2021/04/10 14:23:22;;;;;;;6.43;5.70;;;17.50;46.10;;;;;;5028980;28;20059;-85
2021/04/10 14:25:49;;;;;;;6.97;5.95;;;17.50;46.00;;;;;;5026181;28;20220;-85
2021/04/10 14:28:16;;;;;;;6.72;6.05;;;17.40;45.80;;;;;;5024200;28;20109;-85
2021/04/10 14:30:43;;;;;;;6.93;5.65;;;17.40;45.90;;;;;;5029920;28;20033;-82
2021/04/10 14:33:11;;;;;;;7.68;6.03;;;17.30;45.70;;;;;;5029687;28;20051;-83
2021/04/10 14:35:44;;;;;;;7.93;6.88;;;17.30;45.70;;;;;;5028967;28;20067;-82
2021/04/10 14:38:10;;;;;;;9.55;6.28;;;17.20;45.50;;;;;;5032815;28;20512;-82
2021/04/10 14:40:37;;;;;;;6.97;5.65;;;17.20;45.60;;;;;;5033690;28;20029;-83
2021/04/10 14:43:04;;;;;;;6.57;5.70;;;17.20;45.60;;;;;;5015946;28;20025;-84
2021/04/10 14:45:33;;;;;;;9.55;6.88;;;17.30;45.70;;;;;;5028644;28;20485;-77
2021/04/10 14:47:59;;;;;;;19.15;6.50;;;17.30;45.50;;;;;;5012535;28;20030;-78
2021/04/10 14:50:25;;;;;;;12.98;5.75;;;17.30;45.30;;;;;;5032289;28;20033;-78
2021/04/10 14:52:51;;;;;;;14.20;5.60;;;17.30;45.40;;;;;;5030365;28;20548;-84
2021/04/10 14:55:22;;;;;;;5.97;5.05;;;17.30;45.20;;;;;;5015802;28;20048;-84
2021/04/10 14:57:53;;;;;;;10.68;6.30;;;17.30;45.30;;;;;;5015774;28;20081;-86
2021/04/10 15:00:24;;;;;;;8.30;5.93;;;17.50;46.10;;;;;;5030634;28;20542;-80
2021/04/10 15:02:51;;;;;;;10.77;5.30;;;17.60;46.40;;;;;;5030915;28;20108;-83